Time;durP1;ratioP1;P1;durP2;ratioP2;P2;SDS_P1;SDS_P2;PMS_P1;PMS_P2;Temp;Humidity;BMP_temperature;BMP_pressure;BME280_temperature;BME280_humidity;BME280_pressure;Samples;Min_cycle;Max_cycle;Signal;HPM_P1;HPM_P2
2022/03/22 00:00:33;;;;;;;34.85;21.98;;;14.70;67.10;;;;;;5033969;28;20037;-78
2022/03/22 00:02:59;;;;;;;33.00;23.00;;;14.70;67.30;;;;;;5034263;28;20389;-79
2022/03/22 00:05:25;;;;;;;33.88;23.52;;;14.70;67.40;;;;;;5034301;28;20018;-78
2022/03/22 00:07:51;;;;;;;37.38;24.92;;;14.70;67.20;;;;;;5033615;28;20515;-81
2022/03/22 00:10:17;;;;;;;38.47;23.92;;;14.60;67.20;;;;;;5033879;28;20034;-79
2022/03/22 00:12:42;;;;;;;34.20;22.60;;;14.50;67.40;;;;;;5034040;28;20079;-79
2022/03/22 00:15:10;;;;;;;34.67;22.58;;;14.50;66.90;;;;;;5033986;28;20105;-79
2022/03/22 00:17:37;;;;;;;33.13;21.88;;;14.40;67.30;;;;;;5033805;28;20488;-79
2022/03/22 00:20:05;;;;;;;35.70;23.10;;;14.40;67.40;;;;;;5033768;28;20048;-80
2022/03/22 00:22:30;;;;;;;38.17;22.92;;;14.40;67.40;;;;;;5033623;28;20074;-79
2022/03/22 00:24:56;;;;;;;31.50;21.38;;;14.40;67.60;;;;;;5033536;28;20021;-79
2022/03/22 00:27:22;;;;;;;37.67;21.92;;;14.50;67.60;;;;;;5033905;28;20021;-78
2022/03/22 00:29:48;;;;;;;34.65;22.95;;;14.50;67.30;;;;;;5033444;28;20017;-78
2022/03/22 00:32:14;;;;;;;39.53;22.40;;;14.50;67.40;;;;;;5032561;28;20423;-78
2022/03/22 00:34:44;;;;;;;29.73;20.58;;;14.50;67.60;;;;;;5031450;28;20112;-78
2022/03/22 00:37:14;;;;;;;31.58;22.02;;;14.50;67.70;;;;;;5033571;28;20028;-78
2022/03/22 00:39:43;;;;;;;35.92;22.70;;;14.50;67.40;;;;;;5032396;28;20108;-78
2022/03/22 00:42:10;;;;;;;35.30;22.23;;;14.50;67.50;;;;;;5033424;28;20103;-79
2022/03/22 00:44:38;;;;;;;32.00;21.35;;;14.50;67.70;;;;;;5033677;28;20030;-78
2022/03/22 00:47:05;;;;;;;34.90;21.33;;;14.40;67.50;;;;;;5033486;28;20028;-78
2022/03/22 00:49:32;;;;;;;32.50;21.10;;;14.40;67.50;;;;;;5033505;28;20038;-79
2022/03/22 00:51:59;;;;;;;35.22;22.13;;;14.40;67.50;;;;;;5033007;28;20092;-78
2022/03/22 00:54:25;;;;;;;39.20;23.13;;;14.40;67.50;;;;;;5033018;28;20041;-79
2022/03/22 00:56:53;;;;;;;31.98;20.85;;;14.40;67.60;;;;;;5033254;28;20025;-79
2022/03/22 01:02:04;;;;;;;38.50;21.50;;;14.40;67.50;;;;;;5033288;28;20401;-79
2022/03/22 01:04:29;;;;;;;32.97;21.38;;;14.40;67.80;;;;;;5032937;28;20087;-79
2022/03/22 01:06:55;;;;;;;32.08;21.10;;;14.40;67.60;;;;;;5033180;28;20377;-79
2022/03/22 01:09:21;;;;;;;33.88;21.92;;;14.40;67.50;;;;;;5033045;28;20099;-80
2022/03/22 01:11:47;;;;;;;30.55;20.63;;;14.40;67.30;;;;;;5033256;28;20424;-81
2022/03/22 01:14:13;;;;;;;30.70;20.58;;;14.40;67.30;;;;;;5032907;28;20037;-81
2022/03/22 01:16:39;;;;;;;31.45;20.45;;;14.40;67.40;;;;;;5033392;28;20035;-81
2022/03/22 01:19:06;;;;;;;32.72;20.70;;;14.30;67.20;;;;;;5033011;28;20030;-81
2022/03/22 01:21:32;;;;;;;32.72;21.38;;;14.40;67.10;;;;;;5033326;28;20449;-81
2022/03/22 01:23:59;;;;;;;30.98;20.27;;;14.30;67.30;;;;;;5033275;28;20052;-81
2022/03/22 01:26:25;;;;;;;32.30;20.58;;;14.30;68.20;;;;;;5033300;28;20024;-81
2022/03/22 01:28:50;;;;;;;27.45;20.27;;;14.30;67.50;;;;;;5032920;28;20456;-82
2022/03/22 01:31:16;;;;;;;30.52;19.48;;;14.30;67.90;;;;;;5033248;28;20072;-82
2022/03/22 01:33:42;;;;;;;29.67;20.23;;;14.40;67.30;;;;;;5032817;28;20034;-81
2022/03/22 01:36:08;;;;;;;34.30;20.50;;;14.30;67.00;;;;;;5033247;28;20022;-80
2022/03/22 01:38:33;;;;;;;30.58;20.85;;;14.20;67.30;;;;;;5032680;28;20036;-80
2022/03/22 01:40:59;;;;;;;35.05;20.83;;;14.20;67.50;;;;;;5032832;28;20032;-80
2022/03/22 01:43:25;;;;;;;29.45;20.55;;;14.20;67.50;;;;;;5033012;28;20025;-80
2022/03/22 01:45:51;;;;;;;29.60;20.25;;;14.20;67.70;;;;;;5034536;28;20079;-80
2022/03/22 01:48:16;;;;;;;27.13;19.27;;;14.20;67.50;;;;;;5036561;28;20040;-80
2022/03/22 01:50:42;;;;;;;27.02;19.38;;;14.20;67.90;;;;;;5036847;28;20051;-79
2022/03/22 01:53:10;;;;;;;32.08;19.67;;;14.20;67.60;;;;;;5036511;28;20366;-79
2022/03/22 01:55:36;;;;;;;35.72;21.00;;;14.20;67.10;;;;;;5036438;28;20025;-80
2022/03/22 01:58:03;;;;;;;33.03;20.50;;;14.20;67.30;;;;;;5036344;28;20428;-81
2022/03/22 02:00:28;;;;;;;28.52;19.20;;;14.10;67.30;;;;;;5036509;28;20052;-81
2022/03/22 02:05:56;;;;;;;33.83;20.38;;;14.10;67.20;;;;;;5036439;28;20044;-80
2022/03/22 02:08:27;;;;;;;30.67;19.02;;;14.10;67.80;;;;;;5036111;28;20123;-80
2022/03/22 02:10:54;;;;;;;34.22;20.88;;;14.10;67.40;;;;;;5036157;28;20029;-80
2022/03/22 02:13:20;;;;;;;29.65;18.55;;;14.20;67.40;;;;;;5035847;28;20037;-80
2022/03/22 02:15:49;;;;;;;26.08;18.75;;;14.20;67.40;;;;;;5036370;28;20469;-80
2022/03/22 02:18:16;;;;;;;30.60;19.17;;;14.20;67.50;;;;;;5036378;28;20032;-80
2022/03/22 02:20:42;;;;;;;32.05;20.25;;;14.20;67.30;;;;;;5036250;28;20029;-80
2022/03/22 02:23:14;;;;;;;26.98;19.55;;;14.20;67.20;;;;;;5036300;28;20428;-80
2022/03/22 02:25:39;;;;;;;28.27;20.25;;;14.10;67.20;;;;;;5036275;28;20071;-80
2022/03/22 02:28:05;;;;;;;31.60;19.98;;;14.10;67.40;;;;;;5035949;28;20049;-80
2022/03/22 02:30:32;;;;;;;31.92;20.60;;;14.10;67.50;;;;;;5036055;28;20021;-80
2022/03/22 02:33:00;;;;;;;29.70;18.80;;;14.10;67.50;;;;;;5035805;28;20044;-81
2022/03/22 02:35:28;;;;;;;27.13;19.15;;;14.00;67.60;;;;;;5035994;28;20101;-81
2022/03/22 02:37:54;;;;;;;32.53;21.55;;;14.00;67.60;;;;;;5036011;28;20033;-80
2022/03/22 02:40:20;;;;;;;30.70;19.33;;;13.90;67.50;;;;;;5035465;28;20112;-80
2022/03/22 02:42:50;;;;;;;27.45;18.73;;;13.90;67.30;;;;;;5035697;28;20105;-80
2022/03/22 02:45:17;;;;;;;27.52;19.20;;;13.90;67.10;;;;;;5035549;28;20029;-80
2022/03/22 02:47:43;;;;;;;31.90;18.00;;;13.80;67.00;;;;;;5035570;28;20029;-80
2022/03/22 02:50:10;;;;;;;25.02;17.15;;;13.90;67.10;;;;;;5035625;28;20034;-80
2022/03/22 02:52:37;;;;;;;26.55;17.48;;;13.90;67.10;;;;;;5035515;28;20068;-80
2022/03/22 02:55:06;;;;;;;27.15;17.80;;;13.90;66.80;;;;;;5035678;28;20091;-81
2022/03/22 02:57:32;;;;;;;26.70;17.05;;;13.90;66.80;;;;;;5035408;28;20393;-79
2022/03/22 02:59:58;;;;;;;26.00;17.80;;;14.00;66.70;;;;;;5035427;28;20025;-79
2022/03/22 03:02:23;;;;;;;23.77;17.42;;;14.00;66.40;;;;;;5035296;28;20024;-79
2022/03/22 03:04:49;;;;;;;27.45;17.88;;;14.00;66.40;;;;;;5035544;28;20025;-79
2022/03/22 03:07:15;;;;;;;28.33;17.92;;;13.90;66.20;;;;;;5034945;28;20022;-79
2022/03/22 03:09:40;;;;;;;31.02;20.02;;;13.90;66.10;;;;;;5035516;28;20028;-79
2022/03/22 03:12:06;;;;;;;31.55;19.17;;;14.00;66.30;;;;;;5035172;28;20052;-79
2022/03/22 03:14:41;;;;;;;24.67;16.52;;;14.00;66.20;;;;;;5034968;28;20037;-79
2022/03/22 03:17:12;;;;;;;27.67;17.80;;;14.00;66.30;;;;;;5035016;28;20535;-79
2022/03/22 03:19:38;;;;;;;24.58;16.85;;;14.00;66.20;;;;;;5034984;28;20026;-79
2022/03/22 03:22:04;;;;;;;24.42;17.58;;;14.10;66.30;;;;;;5034630;28;20101;-79
2022/03/22 03:24:31;;;;;;;29.65;19.08;;;14.10;66.40;;;;;;5035154;28;20048;-80
2022/03/22 03:26:57;;;;;;;26.83;17.92;;;14.10;65.90;;;;;;5035168;28;20079;-80
2022/03/22 03:29:23;;;;;;;27.75;17.67;;;14.00;66.00;;;;;;5035012;28;20059;-80
2022/03/22 03:31:49;;;;;;;24.25;17.10;;;14.00;66.00;;;;;;5034443;28;20060;-79
2022/03/22 03:34:15;;;;;;;25.63;17.67;;;14.10;65.90;;;;;;5034737;28;20034;-79
2022/03/22 03:36:41;;;;;;;25.23;17.60;;;14.10;66.00;;;;;;5034916;28;20537;-79
2022/03/22 03:39:07;;;;;;;25.05;17.67;;;14.10;65.80;;;;;;5034577;28;20057;-80
2022/03/22 03:47:03;;;;;;;28.25;17.92;;;14.00;65.30;;;;;;5034409;28;20032;-79
2022/03/22 03:49:29;;;;;;;31.05;18.27;;;14.00;65.40;;;;;;5034630;28;20156;-79
2022/03/22 03:51:55;;;;;;;28.73;18.45;;;14.00;65.60;;;;;;5034555;28;20056;-79
2022/03/22 03:54:20;;;;;;;26.83;18.30;;;13.90;65.30;;;;;;5034377;28;20547;-79
2022/03/22 03:56:46;;;;;;;29.00;19.10;;;13.90;65.50;;;;;;5034560;28;20052;-79
2022/03/22 03:59:12;;;;;;;25.17;17.63;;;13.90;65.40;;;;;;5034112;28;20450;-79
2022/03/22 04:01:37;;;;;;;27.23;17.88;;;13.90;65.60;;;;;;5034030;28;20021;-79
2022/03/22 04:04:03;;;;;;;25.55;17.42;;;13.90;65.50;;;;;;5034436;28;20037;-80
2022/03/22 04:06:29;;;;;;;25.65;17.40;;;13.90;65.90;;;;;;5034216;28;20049;-80
2022/03/22 04:08:55;;;;;;;28.90;18.70;;;14.00;65.60;;;;;;5033375;28;20041;-80
2022/03/22 04:11:21;;;;;;;25.85;18.23;;;14.00;65.20;;;;;;5033765;28;20025;-79
2022/03/22 04:13:46;;;;;;;25.10;17.60;;;13.90;65.30;;;;;;5033951;28;20041;-80
2022/03/22 04:16:12;;;;;;;23.48;17.77;;;13.90;65.50;;;;;;5033835;28;20092;-79
2022/03/22 04:18:38;;;;;;;26.23;16.88;;;13.80;65.40;;;;;;5033818;28;20532;-79
2022/03/22 04:21:04;;;;;;;30.10;19.40;;;13.80;65.50;;;;;;5034159;28;20030;-79
2022/03/22 04:23:30;;;;;;;30.15;19.42;;;13.80;65.70;;;;;;5033776;28;20033;-79
2022/03/22 04:25:57;;;;;;;26.13;18.50;;;13.70;66.00;;;;;;5033909;28;20048;-79
2022/03/22 04:33:51;;;;;;;27.50;18.10;;;13.70;65.90;;;;;;5033632;28;20079;-80
2022/03/22 04:36:17;;;;;;;28.27;19.55;;;13.70;66.10;;;;;;5033546;28;20041;-79
2022/03/22 04:38:43;;;;;;;33.55;20.52;;;13.60;65.90;;;;;;5033487;28;20029;-79
2022/03/22 04:41:09;;;;;;;28.90;19.35;;;13.60;66.10;;;;;;5033472;28;20025;-79
2022/03/22 04:43:35;;;;;;;23.50;18.00;;;13.60;66.10;;;;;;5033628;28;20021;-79
2022/03/22 04:46:01;;;;;;;28.27;17.52;;;13.60;66.10;;;;;;5033453;28;20484;-79
2022/03/22 04:48:27;;;;;;;27.23;17.98;;;13.70;66.10;;;;;;5033434;28;20030;-79
2022/03/22 04:56:43;;;;;;;28.75;18.92;;;13.70;66.10;;;;;;5033751;28;20059;-79
2022/03/22 04:56:43;;;;;;;31.50;19.67;;;13.70;65.90;;;;;;5032323;28;20033;-80
2022/03/22 04:59:12;;;;;;;32.13;21.02;;;13.70;66.00;;;;;;5033455;28;20033;-80
2022/03/22 05:01:38;;;;;;;27.13;19.23;;;13.60;65.70;;;;;;5033592;28;20022;-80
2022/03/22 05:04:04;;;;;;;26.52;18.85;;;13.50;66.00;;;;;;5032883;28;20143;-79
2022/03/22 05:06:31;;;;;;;24.60;18.05;;;13.50;66.00;;;;;;5033348;28;20037;-79
2022/03/22 05:08:56;;;;;;;28.98;18.38;;;13.50;66.00;;;;;;5033026;28;20049;-78
2022/03/22 05:11:22;;;;;;;28.50;19.33;;;13.60;66.30;;;;;;5033238;28;20029;-79
2022/03/22 05:13:48;;;;;;;27.70;19.15;;;13.50;65.90;;;;;;5033166;28;20143;-79
2022/03/22 05:16:14;;;;;;;29.80;19.67;;;13.60;65.90;;;;;;5033149;28;20132;-79
2022/03/22 05:18:41;;;;;;;28.35;20.65;;;13.50;65.80;;;;;;5033334;28;20044;-79
2022/03/22 05:21:07;;;;;;;34.00;21.40;;;13.50;65.90;;;;;;5035627;28;20381;-80
2022/03/22 05:23:36;;;;;;;30.02;20.80;;;13.40;65.80;;;;;;5037443;28;20025;-79
2022/03/22 05:26:04;;;;;;;30.13;20.45;;;13.30;66.50;;;;;;5037068;28;20136;-79
2022/03/22 05:28:30;;;;;;;30.80;20.58;;;13.20;65.70;;;;;;5037170;28;20389;-79
2022/03/22 05:30:56;;;;;;;28.40;19.88;;;13.10;66.20;;;;;;5036774;28;20469;-79
2022/03/22 05:33:22;;;;;;;27.45;19.85;;;13.00;66.80;;;;;;5036746;28;20026;-79
2022/03/22 05:35:48;;;;;;;30.35;20.77;;;13.10;66.90;;;;;;5037226;28;20105;-80
2022/03/22 05:38:14;;;;;;;26.95;19.60;;;13.10;67.00;;;;;;5037090;28;20109;-80
2022/03/22 05:40:40;;;;;;;25.45;18.33;;;13.10;67.70;;;;;;5036890;28;20029;-81
2022/03/22 05:43:06;;;;;;;30.63;20.73;;;13.20;67.10;;;;;;5036409;28;20021;-78
2022/03/22 05:45:32;;;;;;;30.95;19.33;;;13.30;66.90;;;;;;5036663;28;20022;-78
2022/03/22 05:48:00;;;;;;;27.77;19.88;;;13.20;66.90;;;;;;5036950;28;20105;-79
2022/03/22 05:50:27;;;;;;;42.38;20.60;;;13.30;66.80;;;;;;5036907;28;20036;-81
2022/03/22 05:52:53;;;;;;;31.25;19.67;;;13.20;66.90;;;;;;5036638;28;20044;-79
2022/03/22 05:55:18;;;;;;;25.98;18.95;;;13.20;66.80;;;;;;5036232;28;20416;-80
2022/03/22 05:57:44;;;;;;;28.75;19.27;;;13.30;66.40;;;;;;5036677;28;20060;-82
2022/03/22 06:00:11;;;;;;;26.70;17.90;;;13.30;67.50;;;;;;5034866;28;20365;-83
2022/03/22 06:02:39;;;;;;;27.88;17.80;;;13.30;67.70;;;;;;5034414;28;20079;-83
2022/03/22 06:05:09;;;;;;;32.20;19.52;;;13.40;68.10;;;;;;5036290;28;20030;-82
2022/03/22 06:07:39;;;;;;;28.25;18.88;;;13.50;68.30;;;;;;5036120;28;20552;-81
2022/03/22 06:10:05;;;;;;;27.35;18.27;;;13.50;68.00;;;;;;5036445;28;20040;-81
2022/03/22 06:12:40;;;;;;;32.75;20.63;;;13.60;67.90;;;;;;5036418;28;20116;-81
2022/03/22 06:15:16;;;;;;;30.17;18.77;;;13.60;67.50;;;;;;5035806;28;20449;-81
2022/03/22 06:17:56;;;;;;;27.35;19.77;;;13.50;66.90;;;;;;5035723;28;20465;-82
2022/03/22 06:20:23;;;;;;;23.50;17.60;;;13.50;68.30;;;;;;5036183;28;20029;-83
2022/03/22 06:22:49;;;;;;;22.35;16.35;;;13.50;69.00;;;;;;5036174;28;20090;-78
2022/03/22 06:25:16;;;;;;;24.75;17.17;;;13.60;68.70;;;;;;5035786;28;20473;-80
2022/03/22 06:27:44;;;;;;;31.17;20.75;;;13.70;68.60;;;;;;5035991;28;20033;-80
2022/03/22 06:30:12;;;;;;;32.10;20.40;;;13.70;66.40;;;;;;5035955;28;20026;-77
2022/03/22 06:32:58;;;;;;;30.52;20.83;;;13.70;67.00;;;;;;5035287;28;20087;-78
2022/03/22 06:35:26;;;;;;;30.00;20.35;;;13.60;65.90;;;;;;5036117;28;20101;-78
2022/03/22 06:37:52;;;;;;;29.02;19.77;;;13.60;66.00;;;;;;5035237;28;20029;-82
2022/03/22 06:40:20;;;;;;;30.40;19.83;;;13.60;65.90;;;;;;5035934;28;20155;-84
2022/03/22 06:42:47;;;;;;;27.75;18.55;;;13.60;65.80;;;;;;5035612;28;20377;-84
2022/03/22 06:45:13;;;;;;;29.58;19.15;;;13.60;65.60;;;;;;5035529;28;20052;-82
2022/03/22 06:47:41;;;;;;;24.73;16.98;;;13.70;65.80;;;;;;5035654;28;20033;-82
2022/03/22 06:50:12;;;;;;;24.67;17.55;;;13.70;65.80;;;;;;5035300;28;20022;-82
2022/03/22 06:52:38;;;;;;;24.90;17.00;;;13.70;65.90;;;;;;5035205;28;20509;-83
2022/03/22 06:55:06;;;;;;;26.52;19.30;;;13.80;66.40;;;;;;5035886;28;20038;-83
2022/03/22 06:57:31;;;;;;;28.30;17.95;;;13.80;64.70;;;;;;5035192;28;20028;-83
2022/03/22 07:00:01;;;;;;;28.67;19.55;;;13.80;64.50;;;;;;5035567;28;20029;-82
2022/03/22 07:02:27;;;;;;;28.88;19.45;;;13.90;65.00;;;;;;5035412;28;20030;-83
2022/03/22 07:04:53;;;;;;;29.60;18.45;;;13.90;64.80;;;;;;5035600;28;20021;-84
2022/03/22 07:07:19;;;;;;;24.40;18.02;;;14.00;64.50;;;;;;5035039;28;20028;-83
2022/03/22 07:09:46;;;;;;;36.92;21.55;;;14.00;64.10;;;;;;5035423;28;20381;-83
2022/03/22 07:12:13;;;;;;;31.90;18.27;;;14.10;62.50;;;;;;5034718;28;20484;-80
2022/03/22 07:14:40;;;;;;;27.60;18.98;;;14.10;62.80;;;;;;5035051;28;20040;-84
2022/03/22 07:17:07;;;;;;;30.98;21.00;;;14.20;62.30;;;;;;5035206;28;20033;-82
2022/03/22 07:19:34;;;;;;;31.95;19.77;;;14.20;62.00;;;;;;5034408;28;20034;-79
2022/03/22 07:22:01;;;;;;;30.70;19.10;;;14.30;61.40;;;;;;5035275;28;20033;-80
2022/03/22 07:24:27;;;;;;;27.92;19.52;;;14.30;60.80;;;;;;5034347;28;20022;-80
2022/03/22 07:26:53;;;;;;;28.88;18.88;;;14.40;60.10;;;;;;5052317;28;20040;-79
2022/03/22 07:29:18;;;;;;;34.40;19.13;;;14.40;59.30;;;;;;5054603;28;20426;-83
2022/03/22 07:31:44;;;;;;;28.42;17.73;;;14.50;59.90;;;;;;5054250;28;20021;-83
2022/03/22 07:34:15;;;;;;;27.83;19.13;;;14.60;59.60;;;;;;5054240;28;20041;-83
2022/03/22 07:36:41;;;;;;;28.10;19.75;;;14.70;59.20;;;;;;5054648;28;20025;-81
2022/03/22 07:39:08;;;;;;;31.48;19.38;;;14.80;59.00;;;;;;5054372;28;20040;-87
2022/03/22 07:41:34;;;;;;;36.28;20.65;;;14.80;58.80;;;;;;5054338;28;20465;-81
2022/03/22 07:44:01;;;;;;;29.50;18.42;;;14.80;58.90;;;;;;5053083;28;20469;-84
2022/03/22 07:46:28;;;;;;;28.30;18.52;;;14.90;58.80;;;;;;5054201;28;20025;-84
2022/03/22 07:48:54;;;;;;;31.80;19.27;;;15.00;58.50;;;;;;5054174;28;20480;-85
2022/03/22 07:54:04;;;;;;;28.48;18.42;;;15.10;57.60;;;;;;5054066;28;20079;-85
2022/03/22 07:56:33;;;;;;;25.98;17.73;;;15.20;57.30;;;;;;5054501;28;20384;-86
2022/03/22 07:58:59;;;;;;;28.73;17.00;;;15.20;57.50;;;;;;5055080;28;20028;-86
2022/03/22 08:01:24;;;;;;;27.10;17.95;;;15.30;57.00;;;;;;5054556;28;20017;-87
2022/03/22 08:03:51;;;;;;;23.25;17.38;;;15.30;56.80;;;;;;5053897;28;20109;-86
2022/03/22 08:06:17;;;;;;;27.00;17.42;;;15.40;56.70;;;;;;5054071;28;20029;-84
2022/03/22 08:08:44;;;;;;;25.45;17.52;;;15.40;56.80;;;;;;5053800;28;20052;-87
2022/03/22 08:11:10;;;;;;;24.75;18.50;;;15.40;56.20;;;;;;5053793;28;20037;-86
2022/03/22 08:13:37;;;;;;;26.15;17.80;;;15.50;56.10;;;;;;5053573;28;20121;-87
2022/03/22 08:16:06;;;;;;;25.52;17.50;;;15.50;55.50;;;;;;5053467;28;20078;-87
2022/03/22 08:18:32;;;;;;;28.63;18.52;;;15.60;56.00;;;;;;5053424;28;20116;-87
2022/03/22 08:20:58;;;;;;;26.23;18.38;;;15.70;55.30;;;;;;5053629;28;20467;-87
2022/03/22 08:23:23;;;;;;;29.70;18.40;;;15.70;55.40;;;;;;5053336;28;20035;-87
2022/03/22 08:25:51;;;;;;;29.38;18.77;;;15.80;55.50;;;;;;5053385;28;20083;-86
2022/03/22 08:28:18;;;;;;;23.17;16.45;;;15.90;55.80;;;;;;5053235;28;20041;-87
2022/03/22 08:30:44;;;;;;;26.65;17.08;;;16.00;55.50;;;;;;5053278;28;20025;-86
2022/03/22 08:33:11;;;;;;;24.15;17.85;;;16.00;55.50;;;;;;5053591;28;20032;-86
2022/03/22 08:35:42;;;;;;;29.55;18.63;;;16.10;55.40;;;;;;5053322;28;20491;-85
2022/03/22 08:38:08;;;;;;;29.30;19.92;;;16.20;55.10;;;;;;5053237;28;20025;-85
2022/03/22 08:40:34;;;;;;;27.88;18.92;;;16.20;55.00;;;;;;5053082;28;20021;-86
2022/03/22 08:43:01;;;;;;;28.15;18.75;;;16.20;54.60;;;;;;5053007;28;20053;-86
2022/03/22 08:45:27;;;;;;;24.08;17.95;;;16.30;54.10;;;;;;5053361;28;20104;-87
2022/03/22 08:47:54;;;;;;;31.23;19.00;;;16.30;54.40;;;;;;5053554;28;20063;-87
2022/03/22 08:50:22;;;;;;;27.92;18.35;;;16.40;54.10;;;;;;5053432;28;20032;-87
2022/03/22 08:52:49;;;;;;;31.50;19.50;;;16.40;54.60;;;;;;5052768;28;20029;-87
2022/03/22 08:55:17;;;;;;;25.80;17.75;;;16.50;54.90;;;;;;5053132;28;20087;-88
2022/03/22 08:57:44;;;;;;;31.33;20.08;;;16.40;54.70;;;;;;5053025;28;20387;-87
2022/03/22 09:00:11;;;;;;;25.17;18.23;;;16.50;54.20;;;;;;5053121;28;20083;-88
2022/03/22 09:02:44;;;;;;;27.27;17.90;;;16.50;54.40;;;;;;5053046;28;20107;-87
2022/03/22 09:08:00;;;;;;;24.52;17.42;;;16.70;55.00;;;;;;5052997;28;20055;-87
2022/03/22 09:10:27;;;;;;;31.50;18.50;;;16.90;54.80;;;;;;5053411;28;20025;-87
2022/03/22 09:12:53;;;;;;;28.77;18.65;;;17.00;54.90;;;;;;5052841;28;20029;-87
2022/03/22 09:15:20;;;;;;;26.55;19.30;;;17.10;54.00;;;;;;5053010;28;20060;-87
2022/03/22 09:17:47;;;;;;;27.33;18.50;;;17.10;54.50;;;;;;5052798;28;20067;-87
2022/03/22 09:20:13;;;;;;;29.10;17.60;;;17.20;54.80;;;;;;5052606;28;20098;-87
2022/03/22 09:22:40;;;;;;;25.48;18.27;;;17.30;54.70;;;;;;5052821;28;20021;-87
2022/03/22 09:25:07;;;;;;;26.67;18.33;;;17.40;54.90;;;;;;5052947;28;20036;-87
2022/03/22 09:27:33;;;;;;;28.38;18.48;;;17.60;54.80;;;;;;5052702;28;20500;-87
2022/03/22 09:29:58;;;;;;;27.00;18.52;;;17.70;54.90;;;;;;5052771;28;20112;-88
2022/03/22 09:32:24;;;;;;;27.27;18.48;;;17.70;53.60;;;;;;5052420;28;20025;-88
2022/03/22 09:34:50;;;;;;;26.42;18.63;;;17.70;52.60;;;;;;5052637;28;20040;-86
2022/03/22 09:37:16;;;;;;;28.30;18.40;;;17.80;52.30;;;;;;5053704;28;20028;-88
2022/03/22 09:39:43;;;;;;;27.65;18.90;;;17.90;52.90;;;;;;5054596;28;20033;-88
2022/03/22 09:42:09;;;;;;;30.33;19.70;;;18.00;52.30;;;;;;5054175;28;20029;-87
2022/03/22 09:44:35;;;;;;;29.40;18.83;;;18.00;51.90;;;;;;5052945;28;20105;-86
2022/03/22 09:47:03;;;;;;;28.00;19.27;;;18.20;51.80;;;;;;5052601;28;20123;-87
2022/03/22 09:49:29;;;;;;;32.10;18.90;;;18.30;51.90;;;;;;5053184;28;20121;-88
2022/03/22 09:51:56;;;;;;;32.40;20.00;;;18.40;51.90;;;;;;5052579;28;20495;-87
2022/03/22 09:54:23;;;;;;;26.63;19.38;;;18.50;53.10;;;;;;5052539;28;20063;-83
2022/03/22 09:56:49;;;;;;;29.55;19.27;;;18.60;52.10;;;;;;5052077;28;20025;-82
2022/03/22 09:59:17;;;;;;;28.42;17.70;;;18.60;51.70;;;;;;5052605;28;20033;-86
2022/03/22 10:01:43;;;;;;;27.60;19.35;;;18.80;51.50;;;;;;5052381;28;20025;-84
2022/03/22 10:04:12;;;;;;;31.08;18.63;;;18.90;53.10;;;;;;5052454;28;20028;-75
2022/03/22 10:06:50;;;;;;;27.10;18.10;;;19.00;52.10;;;;;;5053898;28;20120;-75
2022/03/22 10:09:30;;;;;;;29.70;19.58;;;19.30;51.60;;;;;;5055734;28;20506;-76
2022/03/22 10:11:55;;;;;;;25.55;17.90;;;19.40;51.40;;;;;;5056078;28;20434;-75
2022/03/22 10:14:36;;;;;;;30.88;18.92;;;19.60;50.90;;;;;;5056127;28;20120;-75
2022/03/22 10:17:28;;;;;;;28.60;19.98;;;19.80;50.60;;;;;;5055969;28;20096;-74
2022/03/22 10:19:53;;;;;;;29.07;18.73;;;19.80;50.50;;;;;;5053785;28;20037;-74
2022/03/22 10:22:24;;;;;;;31.50;19.83;;;19.90;49.90;;;;;;5055734;28;20260;-79
2022/03/22 10:24:54;;;;;;;29.10;18.67;;;20.00;50.10;;;;;;5055943;28;20025;-75
2022/03/22 10:27:38;;;;;;;27.10;18.23;;;20.10;49.70;;;;;;5055849;28;20025;-75
2022/03/22 10:30:06;;;;;;;28.05;19.08;;;20.30;49.20;;;;;;5055530;28;20432;-76
2022/03/22 10:32:44;;;;;;;27.88;18.80;;;20.40;49.00;;;;;;5055669;28;20029;-77
2022/03/22 10:35:33;;;;;;;31.60;19.13;;;20.40;49.20;;;;;;5055797;28;20037;-77
2022/03/22 10:38:04;;;;;;;31.40;18.08;;;20.50;48.40;;;;;;5055402;28;20514;-77
2022/03/22 10:40:34;;;;;;;30.25;19.70;;;20.60;48.50;;;;;;5055559;28;20029;-76
2022/03/22 10:43:01;;;;;;;33.15;20.52;;;20.60;48.80;;;;;;5055485;28;20067;-77
2022/03/22 10:45:28;;;;;;;27.05;17.67;;;20.70;49.20;;;;;;5055279;28;20089;-77
2022/03/22 10:47:55;;;;;;;32.72;18.40;;;20.80;48.80;;;;;;5054923;28;20536;-77
2022/03/22 10:50:21;;;;;;;30.42;19.50;;;20.90;48.10;;;;;;5055118;28;20057;-77
2022/03/22 10:52:53;;;;;;;30.08;19.17;;;21.00;48.90;;;;;;5055119;28;20059;-80
2022/03/22 10:55:22;;;;;;;28.30;19.15;;;21.10;47.80;;;;;;5055421;28;20033;-82
2022/03/22 10:57:56;;;;;;;28.38;18.85;;;21.00;47.20;;;;;;5056113;28;20381;-78
2022/03/22 11:00:22;;;;;;;26.13;18.02;;;21.00;46.50;;;;;;5054855;28;20029;-86
2022/03/22 11:02:51;;;;;;;28.30;18.35;;;21.10;46.70;;;;;;5055125;28;20060;-85
2022/03/22 11:05:19;;;;;;;25.08;18.88;;;21.20;47.30;;;;;;5055049;28;20163;-84
2022/03/22 11:07:49;;;;;;;27.25;19.33;;;21.30;47.20;;;;;;5054209;28;20060;-84
2022/03/22 11:10:25;;;;;;;31.17;20.15;;;21.40;47.30;;;;;;5054498;28;20361;-84
2022/03/22 11:12:52;;;;;;;27.98;17.85;;;21.50;47.30;;;;;;5054752;28;20063;-84
2022/03/22 11:15:18;;;;;;;36.83;20.17;;;21.60;47.20;;;;;;5054859;28;20059;-83
2022/03/22 11:17:47;;;;;;;27.90;19.35;;;21.70;47.10;;;;;;5054512;28;20032;-84
2022/03/22 11:20:14;;;;;;;28.48;19.77;;;21.70;46.70;;;;;;5054729;28;20395;-84
2022/03/22 11:22:51;;;;;;;31.75;18.85;;;21.80;47.00;;;;;;5054812;28;20376;-84
2022/03/22 11:25:19;;;;;;;28.13;18.48;;;21.80;47.30;;;;;;5054627;28;20544;-83
2022/03/22 11:27:57;;;;;;;26.15;17.88;;;21.80;46.50;;;;;;5055115;28;20053;-84
2022/03/22 11:30:23;;;;;;;25.95;18.75;;;21.80;46.20;;;;;;5054780;28;20045;-84
2022/03/22 11:36:07;;;;;;;27.23;18.00;;;22.00;46.80;;;;;;5054618;28;20067;-83
2022/03/22 11:38:50;;;;;;;26.48;18.10;;;22.10;46.90;;;;;;5048798;28;20033;-83
2022/03/22 11:44:23;;;;;;;26.05;17.38;;;22.20;45.80;;;;;;5054569;28;20139;-84
2022/03/22 11:47:14;;;;;;;30.58;18.02;;;22.20;45.80;;;;;;5054596;28;20080;-84
2022/03/22 11:50:07;;;;;;;27.90;18.17;;;22.20;45.80;;;;;;5054507;28;20039;-83
2022/03/22 11:52:33;;;;;;;25.10;16.25;;;22.30;45.00;;;;;;5052484;28;20029;-84
2022/03/22 11:55:06;;;;;;;27.80;18.48;;;22.40;44.90;;;;;;5053190;28;20102;-84
2022/03/22 11:57:58;;;;;;;31.95;19.48;;;22.50;44.10;;;;;;5054066;28;20472;-84
2022/03/22 12:00:46;;;;;;;23.20;16.30;;;22.60;45.60;;;;;;5054147;28;20025;-83
2022/03/22 12:03:14;;;;;;;26.98;17.88;;;22.60;44.20;;;;;;5054364;28;20029;-84
2022/03/22 12:05:40;;;;;;;27.40;18.35;;;22.70;44.30;;;;;;5053908;28;20096;-84
2022/03/22 12:08:08;;;;;;;22.05;16.30;;;22.70;43.30;;;;;;5053930;28;20102;-83
2022/03/22 12:10:34;;;;;;;24.73;17.42;;;22.80;43.90;;;;;;5054104;28;20037;-83
2022/03/22 12:12:59;;;;;;;28.95;18.58;;;22.90;44.80;;;;;;5054529;28;20044;-84
2022/03/22 12:15:26;;;;;;;27.70;17.45;;;22.90;44.30;;;;;;5054006;28;20081;-83
2022/03/22 12:17:52;;;;;;;28.75;18.45;;;22.90;44.20;;;;;;5053649;28;20495;-84
2022/03/22 12:20:23;;;;;;;28.08;19.00;;;23.00;44.40;;;;;;5053569;28;20024;-83
2022/03/22 12:22:55;;;;;;;27.55;17.45;;;23.00;44.30;;;;;;5053639;28;20376;-83
2022/03/22 12:25:24;;;;;;;31.10;18.55;;;22.90;44.80;;;;;;5053390;28;20090;-83
2022/03/22 12:28:04;;;;;;;32.00;18.45;;;23.00;44.00;;;;;;5053585;28;20029;-84
2022/03/22 12:30:33;;;;;;;28.13;18.45;;;22.90;43.80;;;;;;5053255;28;20029;-83
2022/03/22 12:33:03;;;;;;;28.30;17.40;;;22.70;43.90;;;;;;5053379;28;20028;-83
2022/03/22 12:35:29;;;;;;;30.48;18.27;;;22.70;44.10;;;;;;5053571;28;20040;-83
2022/03/22 12:37:57;;;;;;;25.98;17.65;;;22.80;44.60;;;;;;5053467;28;20460;-83
2022/03/22 12:40:24;;;;;;;27.92;18.10;;;22.90;44.20;;;;;;5053030;28;20029;-83
2022/03/22 12:42:51;;;;;;;29.55;18.63;;;23.10;44.40;;;;;;5053674;28;20492;-84
2022/03/22 12:45:19;;;;;;;31.25;19.10;;;23.30;42.90;;;;;;5053346;28;20392;-84
2022/03/22 12:47:45;;;;;;;25.95;18.05;;;23.20;43.90;;;;;;5052847;28;20024;-83
2022/03/22 12:50:13;;;;;;;32.33;18.55;;;23.10;43.40;;;;;;5053406;28;20037;-83
2022/03/22 12:52:40;;;;;;;27.80;17.70;;;23.10;43.60;;;;;;5052922;28;20025;-84
2022/03/22 12:55:08;;;;;;;24.50;17.42;;;23.10;43.80;;;;;;5053168;28;20025;-83
2022/03/22 12:57:37;;;;;;;24.58;17.23;;;23.20;43.50;;;;;;5052767;28;20078;-83
2022/03/22 13:00:04;;;;;;;26.55;17.67;;;23.30;43.10;;;;;;5053091;28;20104;-84
2022/03/22 13:02:30;;;;;;;26.98;17.63;;;23.40;43.80;;;;;;5053127;28;20110;-84